sensor_id;sensor_type;location;lat;lon;timestamp;P1;durP1;ratioP1;P2;durP2;ratioP2
17595;SDS011;8916;47.086;15.920;2022-09-30T00:00:45;11.48;;;8.30;;
17595;SDS011;8916;47.086;15.920;2022-09-30T00:03:15;15.70;;;8.70;;
17595;SDS011;8916;47.086;15.920;2022-09-30T00:05:44;12.00;;;8.63;;
17595;SDS011;8916;47.086;15.920;2022-09-30T00:08:14;10.25;;;8.20;;
17595;SDS011;8916;47.086;15.920;2022-09-30T00:10:43;11.50;;;7.57;;
17595;SDS011;8916;47.086;15.920;2022-09-30T00:13:12;13.60;;;8.27;;
17595;SDS011;8916;47.086;15.920;2022-09-30T00:15:45;18.05;;;8.15;;
17595;SDS011;8916;47.086;15.920;2022-09-30T00:18:15;18.95;;;9.90;;
17595;SDS011;8916;47.086;15.920;2022-09-30T00:20:45;14.38;;;8.60;;
17595;SDS011;8916;47.086;15.920;2022-09-30T00:23:14;14.10;;;8.40;;
17595;SDS011;8916;47.086;15.920;2022-09-30T00:25:43;12.35;;;9.63;;
17595;SDS011;8916;47.086;15.920;2022-09-30T00:28:12;13.25;;;9.10;;
17595;SDS011;8916;47.086;15.920;2022-09-30T00:30:41;17.33;;;9.50;;
17595;SDS011;8916;47.086;15.920;2022-09-30T00:33:11;23.48;;;10.45;;
17595;SDS011;8916;47.086;15.920;2022-09-30T00:35:41;18.00;;;10.88;;
17595;SDS011;8916;47.086;15.920;2022-09-30T00:38:13;17.20;;;11.32;;
17595;SDS011;8916;47.086;15.920;2022-09-30T00:40:42;24.52;;;10.23;;
17595;SDS011;8916;47.086;15.920;2022-09-30T00:43:13;17.15;;;10.35;;
17595;SDS011;8916;47.086;15.920;2022-09-30T00:45:45;16.58;;;10.95;;
17595;SDS011;8916;47.086;15.920;2022-09-30T00:48:19;16.45;;;11.20;;
17595;SDS011;8916;47.086;15.920;2022-09-30T00:50:53;13.25;;;10.75;;
17595;SDS011;8916;47.086;15.920;2022-09-30T00:53:23;18.10;;;10.82;;
17595;SDS011;8916;47.086;15.920;2022-09-30T00:55:58;14.25;;;10.38;;
17595;SDS011;8916;47.086;15.920;2022-09-30T00:58:31;16.70;;;9.90;;
17595;SDS011;8916;47.086;15.920;2022-09-30T01:01:06;18.55;;;11.35;;
17595;SDS011;8916;47.086;15.920;2022-09-30T01:03:37;21.38;;;11.77;;
17595;SDS011;8916;47.086;15.920;2022-09-30T01:06:11;17.88;;;10.63;;
17595;SDS011;8916;47.086;15.920;2022-09-30T01:08:42;21.65;;;9.88;;
17595;SDS011;8916;47.086;15.920;2022-09-30T01:11:12;20.50;;;10.30;;
17595;SDS011;8916;47.086;15.920;2022-09-30T01:13:42;14.95;;;10.38;;
17595;SDS011;8916;47.086;15.920;2022-09-30T01:16:19;14.52;;;10.45;;
17595;SDS011;8916;47.086;15.920;2022-09-30T01:19:09;13.50;;;9.85;;
17595;SDS011;8916;47.086;15.920;2022-09-30T01:22:18;20.08;;;11.32;;
17595;SDS011;8916;47.086;15.920;2022-09-30T01:25:04;13.13;;;10.68;;
17595;SDS011;8916;47.086;15.920;2022-09-30T01:28:11;19.42;;;10.65;;
17595;SDS011;8916;47.086;15.920;2022-09-30T01:31:22;16.15;;;10.20;;
17595;SDS011;8916;47.086;15.920;2022-09-30T01:34:09;18.45;;;10.38;;
17595;SDS011;8916;47.086;15.920;2022-09-30T01:36:47;16.23;;;10.38;;
17595;SDS011;8916;47.086;15.920;2022-09-30T01:39:36;12.98;;;9.85;;
17595;SDS011;8916;47.086;15.920;2022-09-30T01:42:20;16.05;;;10.48;;
17595;SDS011;8916;47.086;15.920;2022-09-30T01:44:58;16.88;;;9.73;;
17595;SDS011;8916;47.086;15.920;2022-09-30T01:47:39;19.83;;;11.27;;
17595;SDS011;8916;47.086;15.920;2022-09-30T01:50:15;20.33;;;11.77;;
17595;SDS011;8916;47.086;15.920;2022-09-30T01:52:52;22.98;;;12.32;;
17595;SDS011;8916;47.086;15.920;2022-09-30T01:55:31;21.85;;;12.30;;
17595;SDS011;8916;47.086;15.920;2022-09-30T01:58:10;20.50;;;13.02;;
17595;SDS011;8916;47.086;15.920;2022-09-30T02:00:46;22.58;;;13.30;;
17595;SDS011;8916;47.086;15.920;2022-09-30T02:03:23;19.85;;;13.60;;
17595;SDS011;8916;47.086;15.920;2022-09-30T02:05:59;21.43;;;12.97;;
17595;SDS011;8916;47.086;15.920;2022-09-30T02:08:34;20.05;;;12.68;;
17595;SDS011;8916;47.086;15.920;2022-09-30T02:11:11;19.60;;;12.85;;
17595;SDS011;8916;47.086;15.920;2022-09-30T02:13:44;26.35;;;13.80;;
17595;SDS011;8916;47.086;15.920;2022-09-30T02:16:19;19.52;;;13.35;;
17595;SDS011;8916;47.086;15.920;2022-09-30T02:18:56;19.55;;;13.02;;
17595;SDS011;8916;47.086;15.920;2022-09-30T02:21:31;16.13;;;12.65;;
17595;SDS011;8916;47.086;15.920;2022-09-30T02:24:07;20.25;;;12.25;;
17595;SDS011;8916;47.086;15.920;2022-09-30T02:26:42;18.77;;;11.55;;
17595;SDS011;8916;47.086;15.920;2022-09-30T02:29:14;20.70;;;12.88;;
17595;SDS011;8916;47.086;15.920;2022-09-30T02:31:48;17.58;;;11.75;;
17595;SDS011;8916;47.086;15.920;2022-09-30T02:34:25;17.27;;;10.98;;
17595;SDS011;8916;47.086;15.920;2022-09-30T02:36:59;18.63;;;10.90;;
17595;SDS011;8916;47.086;15.920;2022-09-30T02:39:37;16.50;;;11.15;;
17595;SDS011;8916;47.086;15.920;2022-09-30T02:42:15;14.15;;;9.70;;
17595;SDS011;8916;47.086;15.920;2022-09-30T02:44:48;15.85;;;11.35;;
17595;SDS011;8916;47.086;15.920;2022-09-30T02:47:21;19.20;;;10.85;;
17595;SDS011;8916;47.086;15.920;2022-09-30T02:50:00;15.32;;;10.43;;
17595;SDS011;8916;47.086;15.920;2022-09-30T02:52:37;18.80;;;10.15;;
17595;SDS011;8916;47.086;15.920;2022-09-30T02:55:17;16.35;;;10.45;;
17595;SDS011;8916;47.086;15.920;2022-09-30T02:57:56;15.27;;;10.25;;
17595;SDS011;8916;47.086;15.920;2022-09-30T03:00:31;16.70;;;9.40;;
17595;SDS011;8916;47.086;15.920;2022-09-30T03:03:02;17.38;;;10.07;;
17595;SDS011;8916;47.086;15.920;2022-09-30T03:05:38;14.90;;;10.35;;
17595;SDS011;8916;47.086;15.920;2022-09-30T03:08:07;11.80;;;9.50;;
17595;SDS011;8916;47.086;15.920;2022-09-30T03:10:38;14.88;;;9.90;;
17595;SDS011;8916;47.086;15.920;2022-09-30T03:13:11;16.70;;;9.93;;
17595;SDS011;8916;47.086;15.920;2022-09-30T03:16:03;11.82;;;9.77;;
17595;SDS011;8916;47.086;15.920;2022-09-30T03:19:02;12.63;;;9.75;;
17595;SDS011;8916;47.086;15.920;2022-09-30T03:21:56;16.88;;;10.00;;
17595;SDS011;8916;47.086;15.920;2022-09-30T03:24:46;16.08;;;10.00;;
17595;SDS011;8916;47.086;15.920;2022-09-30T03:27:40;15.98;;;9.63;;
17595;SDS011;8916;47.086;15.920;2022-09-30T03:30:22;15.63;;;10.25;;
17595;SDS011;8916;47.086;15.920;2022-09-30T03:35:48;13.25;;;10.30;;
17595;SDS011;8916;47.086;15.920;2022-09-30T03:38:33;16.27;;;10.98;;
17595;SDS011;8916;47.086;15.920;2022-09-30T03:41:14;16.83;;;11.15;;
17595;SDS011;8916;47.086;15.920;2022-09-30T03:43:52;21.92;;;10.15;;
17595;SDS011;8916;47.086;15.920;2022-09-30T03:46:29;14.77;;;9.30;;
17595;SDS011;8916;47.086;15.920;2022-09-30T03:49:03;27.52;;;10.98;;
17595;SDS011;8916;47.086;15.920;2022-09-30T03:51:39;14.50;;;9.90;;
17595;SDS011;8916;47.086;15.920;2022-09-30T03:54:11;18.42;;;11.57;;
17595;SDS011;8916;47.086;15.920;2022-09-30T03:56:42;20.08;;;10.88;;
17595;SDS011;8916;47.086;15.920;2022-09-30T03:59:14;19.88;;;10.88;;
17595;SDS011;8916;47.086;15.920;2022-09-30T04:01:50;16.65;;;10.23;;
17595;SDS011;8916;47.086;15.920;2022-09-30T04:07:24;16.52;;;10.85;;
17595;SDS011;8916;47.086;15.920;2022-09-30T04:09:54;14.85;;;11.30;;
17595;SDS011;8916;47.086;15.920;2022-09-30T04:12:24;15.88;;;11.27;;
17595;SDS011;8916;47.086;15.920;2022-09-30T04:14:59;17.23;;;11.48;;
17595;SDS011;8916;47.086;15.920;2022-09-30T04:17:28;17.40;;;11.35;;
17595;SDS011;8916;47.086;15.920;2022-09-30T04:19:58;19.98;;;11.75;;
17595;SDS011;8916;47.086;15.920;2022-09-30T04:22:29;18.35;;;11.45;;
17595;SDS011;8916;47.086;15.920;2022-09-30T04:25:01;19.50;;;11.45;;
17595;SDS011;8916;47.086;15.920;2022-09-30T04:27:30;15.93;;;10.95;;
17595;SDS011;8916;47.086;15.920;2022-09-30T04:30:00;15.38;;;11.35;;
17595;SDS011;8916;47.086;15.920;2022-09-30T04:32:29;17.08;;;10.70;;
17595;SDS011;8916;47.086;15.920;2022-09-30T04:34:58;20.02;;;10.65;;
17595;SDS011;8916;47.086;15.920;2022-09-30T04:37:27;15.88;;;10.45;;
17595;SDS011;8916;47.086;15.920;2022-09-30T04:39:56;18.92;;;11.48;;
17595;SDS011;8916;47.086;15.920;2022-09-30T04:42:27;18.88;;;11.13;;
17595;SDS011;8916;47.086;15.920;2022-09-30T04:44:56;19.70;;;11.32;;
17595;SDS011;8916;47.086;15.920;2022-09-30T04:47:26;18.58;;;10.93;;
17595;SDS011;8916;47.086;15.920;2022-09-30T04:49:55;21.05;;;11.27;;
17595;SDS011;8916;47.086;15.920;2022-09-30T04:52:24;21.42;;;11.25;;
17595;SDS011;8916;47.086;15.920;2022-09-30T04:54:53;21.05;;;11.88;;
17595;SDS011;8916;47.086;15.920;2022-09-30T04:57:23;23.10;;;13.73;;
17595;SDS011;8916;47.086;15.920;2022-09-30T04:59:55;20.52;;;13.02;;
17595;SDS011;8916;47.086;15.920;2022-09-30T05:02:24;21.70;;;13.70;;
17595;SDS011;8916;47.086;15.920;2022-09-30T05:04:54;21.58;;;14.10;;
17595;SDS011;8916;47.086;15.920;2022-09-30T05:07:23;26.88;;;15.77;;
17595;SDS011;8916;47.086;15.920;2022-09-30T05:09:53;22.52;;;15.05;;
17595;SDS011;8916;47.086;15.920;2022-09-30T05:12:22;25.15;;;14.88;;
17595;SDS011;8916;47.086;15.920;2022-09-30T05:14:52;24.15;;;15.05;;
17595;SDS011;8916;47.086;15.920;2022-09-30T05:17:23;19.15;;;13.63;;
17595;SDS011;8916;47.086;15.920;2022-09-30T05:19:52;21.25;;;14.02;;
17595;SDS011;8916;47.086;15.920;2022-09-30T05:22:21;21.08;;;13.95;;
17595;SDS011;8916;47.086;15.920;2022-09-30T05:24:51;21.02;;;14.30;;
17595;SDS011;8916;47.086;15.920;2022-09-30T05:27:22;24.58;;;14.93;;
17595;SDS011;8916;47.086;15.920;2022-09-30T05:29:51;18.83;;;12.70;;
17595;SDS011;8916;47.086;15.920;2022-09-30T05:32:20;20.90;;;13.50;;
17595;SDS011;8916;47.086;15.920;2022-09-30T05:34:52;20.25;;;13.40;;
17595;SDS011;8916;47.086;15.920;2022-09-30T05:37:21;24.50;;;13.70;;
17595;SDS011;8916;47.086;15.920;2022-09-30T05:39:50;20.63;;;14.30;;
17595;SDS011;8916;47.086;15.920;2022-09-30T05:42:21;20.48;;;13.95;;
17595;SDS011;8916;47.086;15.920;2022-09-30T05:44:50;19.30;;;13.70;;
17595;SDS011;8916;47.086;15.920;2022-09-30T05:47:19;20.88;;;13.27;;
17595;SDS011;8916;47.086;15.920;2022-09-30T05:49:51;21.38;;;14.57;;
17595;SDS011;8916;47.086;15.920;2022-09-30T05:52:22;23.85;;;14.27;;
17595;SDS011;8916;47.086;15.920;2022-09-30T05:54:53;21.02;;;14.00;;
17595;SDS011;8916;47.086;15.920;2022-09-30T05:57:23;17.88;;;13.48;;
17595;SDS011;8916;47.086;15.920;2022-09-30T05:59:53;18.73;;;13.35;;
17595;SDS011;8916;47.086;15.920;2022-09-30T06:02:24;22.88;;;13.50;;
17595;SDS011;8916;47.086;15.920;2022-09-30T06:04:54;18.17;;;12.35;;
17595;SDS011;8916;47.086;15.920;2022-09-30T06:07:24;17.55;;;13.57;;
17595;SDS011;8916;47.086;15.920;2022-09-30T06:09:53;21.35;;;14.85;;
17595;SDS011;8916;47.086;15.920;2022-09-30T06:12:22;20.98;;;13.90;;
17595;SDS011;8916;47.086;15.920;2022-09-30T06:14:52;25.95;;;14.23;;
17595;SDS011;8916;47.086;15.920;2022-09-30T06:17:21;21.77;;;14.68;;
17595;SDS011;8916;47.086;15.920;2022-09-30T06:19:51;22.02;;;13.73;;
17595;SDS011;8916;47.086;15.920;2022-09-30T06:22:21;20.60;;;13.32;;
17595;SDS011;8916;47.086;15.920;2022-09-30T06:24:51;18.02;;;12.77;;
17595;SDS011;8916;47.086;15.920;2022-09-30T06:27:21;22.73;;;13.20;;
17595;SDS011;8916;47.086;15.920;2022-09-30T06:29:51;18.77;;;12.55;;
17595;SDS011;8916;47.086;15.920;2022-09-30T06:32:20;18.33;;;12.02;;
17595;SDS011;8916;47.086;15.920;2022-09-30T06:34:50;16.27;;;11.15;;
17595;SDS011;8916;47.086;15.920;2022-09-30T06:37:23;21.85;;;12.30;;
17595;SDS011;8916;47.086;15.920;2022-09-30T06:39:52;20.00;;;12.07;;
17595;SDS011;8916;47.086;15.920;2022-09-30T06:42:21;14.88;;;10.30;;
17595;SDS011;8916;47.086;15.920;2022-09-30T06:44:51;17.30;;;10.88;;
17595;SDS011;8916;47.086;15.920;2022-09-30T06:47:20;18.05;;;11.15;;
17595;SDS011;8916;47.086;15.920;2022-09-30T06:49:52;15.43;;;10.70;;
17595;SDS011;8916;47.086;15.920;2022-09-30T06:52:26;17.88;;;10.75;;
17595;SDS011;8916;47.086;15.920;2022-09-30T06:54:55;18.33;;;11.52;;
17595;SDS011;8916;47.086;15.920;2022-09-30T06:57:24;15.27;;;10.45;;
17595;SDS011;8916;47.086;15.920;2022-09-30T06:59:54;15.30;;;11.07;;
17595;SDS011;8916;47.086;15.920;2022-09-30T07:02:23;14.07;;;10.05;;
17595;SDS011;8916;47.086;15.920;2022-09-30T07:04:52;16.52;;;9.93;;
17595;SDS011;8916;47.086;15.920;2022-09-30T07:07:21;15.48;;;9.45;;
17595;SDS011;8916;47.086;15.920;2022-09-30T07:09:54;18.65;;;9.70;;
17595;SDS011;8916;47.086;15.920;2022-09-30T07:12:26;16.60;;;10.27;;
17595;SDS011;8916;47.086;15.920;2022-09-30T07:14:55;15.20;;;9.27;;
17595;SDS011;8916;47.086;15.920;2022-09-30T07:17:26;17.70;;;10.25;;
17595;SDS011;8916;47.086;15.920;2022-09-30T07:19:56;17.45;;;10.63;;
17595;SDS011;8916;47.086;15.920;2022-09-30T07:22:28;12.13;;;9.50;;
17595;SDS011;8916;47.086;15.920;2022-09-30T07:25:00;17.58;;;10.70;;
17595;SDS011;8916;47.086;15.920;2022-09-30T07:27:32;18.75;;;10.60;;
17595;SDS011;8916;47.086;15.920;2022-09-30T07:30:01;11.40;;;8.85;;
17595;SDS011;8916;47.086;15.920;2022-09-30T07:32:42;11.55;;;9.30;;
17595;SDS011;8916;47.086;15.920;2022-09-30T07:35:11;11.93;;;8.68;;
17595;SDS011;8916;47.086;15.920;2022-09-30T07:37:40;17.33;;;9.43;;
17595;SDS011;8916;47.086;15.920;2022-09-30T07:40:11;11.10;;;9.65;;
17595;SDS011;8916;47.086;15.920;2022-09-30T07:42:41;15.93;;;10.50;;
17595;SDS011;8916;47.086;15.920;2022-09-30T07:45:12;21.35;;;11.68;;
17595;SDS011;8916;47.086;15.920;2022-09-30T07:47:45;17.88;;;11.43;;
17595;SDS011;8916;47.086;15.920;2022-09-30T07:50:20;18.92;;;11.13;;
17595;SDS011;8916;47.086;15.920;2022-09-30T07:52:49;19.48;;;9.77;;
17595;SDS011;8916;47.086;15.920;2022-09-30T07:55:21;15.05;;;10.20;;
17595;SDS011;8916;47.086;15.920;2022-09-30T07:57:51;15.27;;;10.10;;
17595;SDS011;8916;47.086;15.920;2022-09-30T08:00:20;18.75;;;10.60;;
17595;SDS011;8916;47.086;15.920;2022-09-30T08:05:38;14.27;;;9.18;;
17595;SDS011;8916;47.086;15.920;2022-09-30T08:08:08;15.73;;;8.43;;
17595;SDS011;8916;47.086;15.920;2022-09-30T08:10:38;12.48;;;8.15;;
17595;SDS011;8916;47.086;15.920;2022-09-30T08:13:07;13.52;;;7.80;;
17595;SDS011;8916;47.086;15.920;2022-09-30T08:15:39;15.38;;;7.97;;
17595;SDS011;8916;47.086;15.920;2022-09-30T08:18:09;16.23;;;7.50;;
17595;SDS011;8916;47.086;15.920;2022-09-30T08:20:38;13.63;;;8.02;;
17595;SDS011;8916;47.086;15.920;2022-09-30T08:23:07;13.50;;;7.40;;
17595;SDS011;8916;47.086;15.920;2022-09-30T08:25:36;10.80;;;6.75;;
17595;SDS011;8916;47.086;15.920;2022-09-30T08:28:06;14.15;;;6.90;;
17595;SDS011;8916;47.086;15.920;2022-09-30T08:30:36;9.18;;;5.75;;
17595;SDS011;8916;47.086;15.920;2022-09-30T08:33:06;8.82;;;6.20;;
17595;SDS011;8916;47.086;15.920;2022-09-30T08:35:35;12.27;;;6.30;;
17595;SDS011;8916;47.086;15.920;2022-09-30T08:38:04;10.82;;;5.80;;
17595;SDS011;8916;47.086;15.920;2022-09-30T08:40:34;9.73;;;5.53;;
17595;SDS011;8916;47.086;15.920;2022-09-30T08:43:20;8.07;;;5.93;;
17595;SDS011;8916;47.086;15.920;2022-09-30T08:46:00;12.02;;;6.53;;
17595;SDS011;8916;47.086;15.920;2022-09-30T08:48:41;7.53;;;5.07;;
17595;SDS011;8916;47.086;15.920;2022-09-30T08:51:29;6.45;;;4.60;;
17595;SDS011;8916;47.086;15.920;2022-09-30T08:54:04;6.22;;;4.40;;
17595;SDS011;8916;47.086;15.920;2022-09-30T08:56:39;5.07;;;3.88;;
17595;SDS011;8916;47.086;15.920;2022-09-30T08:59:13;5.85;;;4.32;;
17595;SDS011;8916;47.086;15.920;2022-09-30T09:01:57;5.05;;;4.18;;
17595;SDS011;8916;47.086;15.920;2022-09-30T09:04:43;4.73;;;3.47;;
17595;SDS011;8916;47.086;15.920;2022-09-30T09:07:16;7.07;;;4.72;;
17595;SDS011;8916;47.086;15.920;2022-09-30T09:10:04;9.75;;;5.38;;
17595;SDS011;8916;47.086;15.920;2022-09-30T09:12:49;7.82;;;5.32;;
17595;SDS011;8916;47.086;15.920;2022-09-30T09:15:31;7.05;;;5.03;;
17595;SDS011;8916;47.086;15.920;2022-09-30T09:21:22;4.95;;;4.15;;
17595;SDS011;8916;47.086;15.920;2022-09-30T09:24:11;8.32;;;4.10;;
17595;SDS011;8916;47.086;15.920;2022-09-30T09:26:45;6.63;;;4.30;;
17595;SDS011;8916;47.086;15.920;2022-09-30T09:29:24;6.88;;;4.68;;
17595;SDS011;8916;47.086;15.920;2022-09-30T09:32:10;6.68;;;4.00;;
17595;SDS011;8916;47.086;15.920;2022-09-30T09:34:44;5.30;;;4.10;;
17595;SDS011;8916;47.086;15.920;2022-09-30T09:37:19;8.57;;;5.15;;
17595;SDS011;8916;47.086;15.920;2022-09-30T09:40:13;5.20;;;3.83;;
17595;SDS011;8916;47.086;15.920;2022-09-30T09:42:52;6.72;;;3.90;;
17595;SDS011;8916;47.086;15.920;2022-09-30T09:45:33;8.35;;;4.45;;
17595;SDS011;8916;47.086;15.920;2022-09-30T09:48:11;7.10;;;4.28;;
17595;SDS011;8916;47.086;15.920;2022-09-30T09:50:48;7.68;;;3.83;;
17595;SDS011;8916;47.086;15.920;2022-09-30T09:53:33;5.20;;;3.67;;
17595;SDS011;8916;47.086;15.920;2022-09-30T09:56:13;6.15;;;4.25;;
17595;SDS011;8916;47.086;15.920;2022-09-30T10:01:40;5.25;;;3.90;;
17595;SDS011;8916;47.086;15.920;2022-09-30T10:04:17;4.75;;;3.33;;
17595;SDS011;8916;47.086;15.920;2022-09-30T10:06:51;5.38;;;3.17;;
17595;SDS011;8916;47.086;15.920;2022-09-30T10:09:29;4.53;;;3.25;;
17595;SDS011;8916;47.086;15.920;2022-09-30T10:12:18;6.07;;;3.13;;
17595;SDS011;8916;47.086;15.920;2022-09-30T10:14:57;4.03;;;3.25;;
17595;SDS011;8916;47.086;15.920;2022-09-30T10:17:31;5.78;;;3.10;;
17595;SDS011;8916;47.086;15.920;2022-09-30T10:23:09;5.38;;;3.22;;
17595;SDS011;8916;47.086;15.920;2022-09-30T10:28:44;5.80;;;3.03;;
17595;SDS011;8916;47.086;15.920;2022-09-30T10:31:16;3.80;;;2.22;;
17595;SDS011;8916;47.086;15.920;2022-09-30T10:33:53;3.85;;;2.22;;
17595;SDS011;8916;47.086;15.920;2022-09-30T10:36:28;3.25;;;2.72;;
17595;SDS011;8916;47.086;15.920;2022-09-30T10:39:04;3.20;;;2.30;;
17595;SDS011;8916;47.086;15.920;2022-09-30T10:41:36;2.90;;;2.42;;
17595;SDS011;8916;47.086;15.920;2022-09-30T10:44:06;2.70;;;1.77;;
17595;SDS011;8916;47.086;15.920;2022-09-30T10:46:48;5.25;;;2.28;;
17595;SDS011;8916;47.086;15.920;2022-09-30T10:49:23;2.95;;;2.40;;
17595;SDS011;8916;47.086;15.920;2022-09-30T10:51:55;2.72;;;2.22;;
17595;SDS011;8916;47.086;15.920;2022-09-30T10:54:35;4.15;;;1.90;;
17595;SDS011;8916;47.086;15.920;2022-09-30T10:57:18;4.10;;;1.65;;
17595;SDS011;8916;47.086;15.920;2022-09-30T10:59:51;3.65;;;1.40;;
17595;SDS011;8916;47.086;15.920;2022-09-30T11:02:28;2.57;;;1.87;;
17595;SDS011;8916;47.086;15.920;2022-09-30T11:05:04;9.07;;;2.50;;
17595;SDS011;8916;47.086;15.920;2022-09-30T11:07:45;3.78;;;2.03;;
17595;SDS011;8916;47.086;15.920;2022-09-30T11:10:24;4.07;;;1.90;;
17595;SDS011;8916;47.086;15.920;2022-09-30T11:13:03;3.13;;;1.90;;
17595;SDS011;8916;47.086;15.920;2022-09-30T11:15:51;3.75;;;1.90;;
17595;SDS011;8916;47.086;15.920;2022-09-30T11:18:30;2.08;;;1.60;;
17595;SDS011;8916;47.086;15.920;2022-09-30T11:21:05;3.53;;;1.98;;
17595;SDS011;8916;47.086;15.920;2022-09-30T11:23:41;4.70;;;1.60;;
17595;SDS011;8916;47.086;15.920;2022-09-30T11:26:19;3.85;;;1.98;;
17595;SDS011;8916;47.086;15.920;2022-09-30T11:29:03;1.75;;;1.65;;
17595;SDS011;8916;47.086;15.920;2022-09-30T11:31:47;2.38;;;1.63;;
17595;SDS011;8916;47.086;15.920;2022-09-30T11:34:28;2.03;;;1.40;;
17595;SDS011;8916;47.086;15.920;2022-09-30T11:37:13;2.70;;;1.80;;
17595;SDS011;8916;47.086;15.920;2022-09-30T11:39:56;2.28;;;1.75;;
17595;SDS011;8916;47.086;15.920;2022-09-30T11:42:52;3.38;;;2.10;;
17595;SDS011;8916;47.086;15.920;2022-09-30T11:45:37;2.47;;;2.10;;
17595;SDS011;8916;47.086;15.920;2022-09-30T11:48:33;2.30;;;1.77;;
17595;SDS011;8916;47.086;15.920;2022-09-30T11:51:15;2.83;;;2.10;;
17595;SDS011;8916;47.086;15.920;2022-09-30T11:53:53;2.93;;;2.27;;
17595;SDS011;8916;47.086;15.920;2022-09-30T11:56:41;3.40;;;2.47;;
17595;SDS011;8916;47.086;15.920;2022-09-30T11:59:21;3.58;;;2.22;;
17595;SDS011;8916;47.086;15.920;2022-09-30T12:01:56;3.75;;;2.20;;
17595;SDS011;8916;47.086;15.920;2022-09-30T12:04:28;4.45;;;2.30;;
17595;SDS011;8916;47.086;15.920;2022-09-30T12:07:03;2.55;;;2.03;;
17595;SDS011;8916;47.086;15.920;2022-09-30T12:09:39;2.20;;;1.90;;
17595;SDS011;8916;47.086;15.920;2022-09-30T12:12:12;3.25;;;2.17;;
17595;SDS011;8916;47.086;15.920;2022-09-30T12:14:47;4.18;;;2.20;;
17595;SDS011;8916;47.086;15.920;2022-09-30T12:17:21;3.78;;;2.00;;
17595;SDS011;8916;47.086;15.920;2022-09-30T12:19:58;2.08;;;1.88;;
17595;SDS011;8916;47.086;15.920;2022-09-30T12:22:35;2.45;;;1.92;;
17595;SDS011;8916;47.086;15.920;2022-09-30T12:25:10;4.32;;;2.60;;
17595;SDS011;8916;47.086;15.920;2022-09-30T12:27:44;5.88;;;3.13;;
17595;SDS011;8916;47.086;15.920;2022-09-30T12:30:21;4.13;;;3.20;;
17595;SDS011;8916;47.086;15.920;2022-09-30T12:36:19;5.65;;;3.67;;
17595;SDS011;8916;47.086;15.920;2022-09-30T12:42:49;8.52;;;3.40;;
17595;SDS011;8916;47.086;15.920;2022-09-30T12:46:00;5.47;;;3.67;;
17595;SDS011;8916;47.086;15.920;2022-09-30T12:48:44;6.20;;;3.95;;
17595;SDS011;8916;47.086;15.920;2022-09-30T12:51:21;7.55;;;3.75;;
17595;SDS011;8916;47.086;15.920;2022-09-30T12:53:58;4.95;;;3.80;;
17595;SDS011;8916;47.086;15.920;2022-09-30T12:56:31;5.18;;;3.25;;
17595;SDS011;8916;47.086;15.920;2022-09-30T12:59:03;6.28;;;3.30;;
17595;SDS011;8916;47.086;15.920;2022-09-30T13:01:35;9.82;;;3.50;;
17595;SDS011;8916;47.086;15.920;2022-09-30T13:04:16;9.27;;;3.28;;
17595;SDS011;8916;47.086;15.920;2022-09-30T13:07:05;6.45;;;3.22;;
17595;SDS011;8916;47.086;15.920;2022-09-30T13:09:59;4.40;;;2.97;;
17595;SDS011;8916;47.086;15.920;2022-09-30T13:15:50;18.38;;;9.75;;
17595;SDS011;8916;47.086;15.920;2022-09-30T13:21:46;4.70;;;2.67;;
17595;SDS011;8916;47.086;15.920;2022-09-30T13:24:18;5.45;;;2.88;;
17595;SDS011;8916;47.086;15.920;2022-09-30T13:27:32;3.75;;;2.30;;
17595;SDS011;8916;47.086;15.920;2022-09-30T13:30:26;5.13;;;2.50;;
17595;SDS011;8916;47.086;15.920;2022-09-30T13:33:28;3.03;;;2.20;;
17595;SDS011;8916;47.086;15.920;2022-09-30T13:36:29;4.15;;;2.65;;
17595;SDS011;8916;47.086;15.920;2022-09-30T13:41:59;3.83;;;2.50;;
17595;SDS011;8916;47.086;15.920;2022-09-30T13:44:39;2.22;;;2.03;;
17595;SDS011;8916;47.086;15.920;2022-09-30T13:47:25;5.85;;;2.60;;
17595;SDS011;8916;47.086;15.920;2022-09-30T13:50:02;4.95;;;2.25;;
17595;SDS011;8916;47.086;15.920;2022-09-30T13:52:44;4.65;;;2.33;;
17595;SDS011;8916;47.086;15.920;2022-09-30T13:55:18;2.65;;;2.13;;
17595;SDS011;8916;47.086;15.920;2022-09-30T13:57:54;3.78;;;2.80;;
17595;SDS011;8916;47.086;15.920;2022-09-30T14:00:42;4.85;;;2.53;;
17595;SDS011;8916;47.086;15.920;2022-09-30T14:03:30;3.88;;;2.35;;
17595;SDS011;8916;47.086;15.920;2022-09-30T14:06:21;2.83;;;2.00;;
17595;SDS011;8916;47.086;15.920;2022-09-30T14:09:18;3.58;;;2.28;;
17595;SDS011;8916;47.086;15.920;2022-09-30T14:12:15;4.95;;;2.58;;
17595;SDS011;8916;47.086;15.920;2022-09-30T14:15:08;4.10;;;2.58;;
17595;SDS011;8916;47.086;15.920;2022-09-30T14:18:07;5.85;;;2.28;;
17595;SDS011;8916;47.086;15.920;2022-09-30T14:21:03;4.50;;;1.80;;
17595;SDS011;8916;47.086;15.920;2022-09-30T14:23:55;3.90;;;1.80;;
17595;SDS011;8916;47.086;15.920;2022-09-30T14:26:39;3.70;;;2.08;;
17595;SDS011;8916;47.086;15.920;2022-09-30T14:29:36;2.63;;;1.83;;
17595;SDS011;8916;47.086;15.920;2022-09-30T14:32:16;3.85;;;2.00;;
17595;SDS011;8916;47.086;15.920;2022-09-30T14:34:48;3.15;;;2.28;;
17595;SDS011;8916;47.086;15.920;2022-09-30T14:37:19;4.95;;;2.38;;
17595;SDS011;8916;47.086;15.920;2022-09-30T14:39:53;3.60;;;2.10;;
17595;SDS011;8916;47.086;15.920;2022-09-30T14:42:26;2.25;;;1.80;;
17595;SDS011;8916;47.086;15.920;2022-09-30T14:44:59;5.80;;;2.00;;
17595;SDS011;8916;47.086;15.920;2022-09-30T14:47:32;3.08;;;2.30;;
17595;SDS011;8916;47.086;15.920;2022-09-30T14:50:08;4.97;;;2.05;;
17595;SDS011;8916;47.086;15.920;2022-09-30T14:52:41;4.57;;;2.40;;
17595;SDS011;8916;47.086;15.920;2022-09-30T14:55:20;2.40;;;2.05;;
17595;SDS011;8916;47.086;15.920;2022-09-30T14:57:56;3.20;;;2.10;;
17595;SDS011;8916;47.086;15.920;2022-09-30T15:00:49;2.50;;;1.92;;
17595;SDS011;8916;47.086;15.920;2022-09-30T15:03:31;2.80;;;1.90;;
17595;SDS011;8916;47.086;15.920;2022-09-30T15:06:04;4.78;;;1.90;;
17595;SDS011;8916;47.086;15.920;2022-09-30T15:08:44;4.47;;;2.30;;
17595;SDS011;8916;47.086;15.920;2022-09-30T15:11:17;3.63;;;1.70;;
17595;SDS011;8916;47.086;15.920;2022-09-30T15:13:50;2.00;;;1.77;;
17595;SDS011;8916;47.086;15.920;2022-09-30T15:16:25;2.72;;;2.00;;
17595;SDS011;8916;47.086;15.920;2022-09-30T15:18:58;2.60;;;2.10;;
17595;SDS011;8916;47.086;15.920;2022-09-30T15:21:29;3.80;;;2.13;;
17595;SDS011;8916;47.086;15.920;2022-09-30T15:23:59;3.78;;;2.13;;
17595;SDS011;8916;47.086;15.920;2022-09-30T15:26:29;3.13;;;2.03;;
17595;SDS011;8916;47.086;15.920;2022-09-30T15:29:03;3.45;;;1.92;;
17595;SDS011;8916;47.086;15.920;2022-09-30T15:31:33;3.30;;;1.75;;
17595;SDS011;8916;47.086;15.920;2022-09-30T15:34:03;4.13;;;2.10;;
17595;SDS011;8916;47.086;15.920;2022-09-30T15:36:34;5.85;;;1.80;;
17595;SDS011;8916;47.086;15.920;2022-09-30T15:39:04;3.33;;;2.00;;
17595;SDS011;8916;47.086;15.920;2022-09-30T15:41:45;5.13;;;1.95;;
17595;SDS011;8916;47.086;15.920;2022-09-30T15:44:18;2.53;;;1.70;;
17595;SDS011;8916;47.086;15.920;2022-09-30T15:47:04;3.05;;;1.70;;
17595;SDS011;8916;47.086;15.920;2022-09-30T15:49:44;4.70;;;2.00;;
17595;SDS011;8916;47.086;15.920;2022-09-30T15:52:26;4.35;;;2.20;;
17595;SDS011;8916;47.086;15.920;2022-09-30T15:58:29;2.67;;;2.10;;
17595;SDS011;8916;47.086;15.920;2022-09-30T16:01:10;7.50;;;2.88;;
17595;SDS011;8916;47.086;15.920;2022-09-30T16:03:48;2.13;;;1.80;;
17595;SDS011;8916;47.086;15.920;2022-09-30T16:06:23;2.40;;;2.00;;
17595;SDS011;8916;47.086;15.920;2022-09-30T16:11:33;3.63;;;2.00;;